Tranquillity, CA (93668)

6:42 PM PDT on October 20, 2014 (GMT -0700)
MAP MENDOTA (P304) CA PSD | Change Station
CLOSE
Current Station
Personal Weather Station
Location: Mendota, CA
Elevation: 164 ft
Nearby Weather Stations

Elev 164 ft 36.74 °N, 120.36 °W | Updated 42 minutes ago

Partly Cloudy
Partly Cloudy
78 °F
Feels Like 79 °F
N
10
Wind Variable Wind from NNW
Gusts 0.0 mph

Today
High -- | Low -- °F
--% Chance of Precip.
Yesterday
High -- | Low -- °F
Precip. -- in
7:13 AM 6:17 PM
Waning Crescent, 8% visible
Pressure 29.89 in
Visibility 10.0 miles
Clouds Clear
Heat Index 79 °F
Dew Point 52 °F
Humidity 40%
Rainfall -999.00 in
Snow Depth Not available.
UV 0 out of 12
Pollen 3.50 out of 12
Air Quality Not available.
Flu Activity Sporadic
METAR KMAE 210053Z AUTO 32015G22KT 10SM CLR 24/08 A2990 RMK AO2 SLP122 T02440078

More Conditions Fewer Conditions

Pressure 29.89 in
Visibility 10.0 miles
Clouds Clear
Heat Index 79 °F
Dew Point 52 °F
Humidity 40%
Rainfall -999.00 in
Snow Depth Not available.
UV 0 out of 12
Pollen 3.50 out of 12
Air Quality Not available.
Flu Activity Sporadic
METAR KMAE 210053Z AUTO 32015G22KT 10SM CLR 24/08 A2990 RMK AO2 SLP122 T02440078

More Conditions Fewer Conditions

10-Day Weather Forecast

Almanac

Astronomy

Oct. 20, 2014 Rise Set
Actual Time 7:13 AM PDT 6:17 PM PDT
Civil Twilight 6:46 AM PDT 6:44 PM PDT
Nautical Twilight 6:16 AM PDT 7:14 PM PDT
Astronomical Twilight 5:46 AM PDT 7:44 PM PDT
Moon 4:10 AM PDT (10/20) 4:39 PM PDT (10/20)
Length of Visible Light 11h 57m
Length of Day
11h 04m
Tomorrow will be 2m 12s shorter.
Waning Crescent, 8% of the Moon is Illuminated
Today
Waning Crescent
Oct 23
New
Oct 30
First Quarter
Nov 6
Full
Nov 14
Last Quarter

Today's Extremes

State Highs State Lows

Community

WunderPhotos

Upload Photos

1,763,563 photos uploaded!

Nearby

Snow Depth

Station Depth Elevation
Leavitt Lake 0 in 9400 ft
Leavitt Meadows 0 in 7200 ft
Summit Meadow 0 in 9122 ft
Blue Lakes 0 in 8000 ft
Forestdale Creek 0 in 8029 ft

Earthquake Activity

City Distance Mag. Time & Date
Lone Pine, California 111 miles 2.6 5:26 AM PDT
2014-10-19
Dixon Lane-Meadow Creek, California 118 miles 2.6 5:32 PM PDT
2014-10-18
East Foothills, California 95 miles 2.6 8:16 AM PDT
2014-10-18
Minimum magnitude displayed is 2.5.

Coastal Water Temperatures

Place Temperature
No Stations Reporting

Nearby Weather Stations